Time;durP1;ratioP1;P1;durP2;ratioP2;P2;SDS_P1;SDS_P2;PMS_P1;PMS_P2;Temp;Humidity;BMP_temperature;BMP_pressure;BME280_temperature;BME280_humidity;BME280_pressure;Samples;Min_cycle;Max_cycle;Signal;HPM_P1;HPM_P2
2023/02/12 00:01:01;;;;;;;;;;;;;;;16.14;35.89;101833.28;5075399;28;1047;-45
2023/02/12 00:03:27;;;;;;;;;;;;;;;15.63;37.01;101832.22;5075180;28;1978;-46
2023/02/12 00:05:52;;;;;;;;;;;;;;;15.33;37.59;101830.47;5076321;28;1115;-47
2023/02/12 00:08:17;;;;;;;;;;;;;;;15.46;37.19;101826.63;5078016;28;1162;-48
2023/02/12 00:10:43;;;;;;;;;;;;;;;17.03;34.37;101829.09;5078881;28;1054;-47
2023/02/12 00:13:09;;;;;;;;;;;;;;;17.20;33.67;101823.59;5079185;28;1086;-47
2023/02/12 00:15:37;;;;;;;;;;;;;;;16.08;36.15;101818.63;5078663;28;1162;-47
2023/02/12 00:18:02;;;;;;;;;;;;;;;15.62;36.90;101819.59;5078601;28;1064;-45
2023/02/12 00:20:28;;;;;;;;;;;;;;;15.28;37.55;101825.72;5078893;28;1138;-44
2023/02/12 00:22:53;;;;;;;;;;;;;;;15.63;36.96;101821.28;5078966;28;1059;-45
2023/02/12 00:25:19;;;;;;;;;;;;;;;17.09;33.99;101828.09;5078686;28;1968;-47
2023/02/12 00:27:44;;;;;;;;;;;;;;;16.93;34.31;101835.28;5078348;28;1082;-45
2023/02/12 00:30:10;;;;;;;;;;;;;;;15.96;36.27;101820.59;5077812;28;1143;-45
2023/02/12 00:32:36;;;;;;;;;;;;;;;15.54;36.78;101820.78;5110794;28;1249;-47
2023/02/12 00:35:01;;;;;;;;;;;;;;;15.27;37.56;101823.22;5079201;28;1158;-47
2023/02/12 00:37:27;;;;;;;;;;;;;;;16.83;34.71;101826.00;5078835;28;1151;-45
2023/02/12 00:39:52;;;;;;;;;;;;;;;17.07;34.17;101816.53;5078346;28;1095;-43
2023/02/12 00:42:18;;;;;;;;;;;;;;;15.97;36.01;101814.03;5090050;28;1417;-45
2023/02/12 00:44:44;;;;;;;;;;;;;;;15.53;37.05;101811.75;5077706;28;1905;-45
2023/02/12 00:47:09;;;;;;;;;;;;;;;16.17;35.72;101810.00;5078101;28;1058;-47
2023/02/12 00:49:35;;;;;;;;;;;;;;;17.43;33.42;101814.31;5078327;28;1137;-48
2023/02/12 00:52:00;;;;;;;;;;;;;;;16.57;34.99;101800.84;5077881;28;1050;-47
2023/02/12 00:54:26;;;;;;;;;;;;;;;15.85;36.41;101796.78;5076954;28;1264;-44
2023/02/12 00:56:54;;;;;;;;;;;;;;;15.54;37.05;101807.06;5078357;28;1140;-49
2023/02/12 00:59:20;;;;;;;;;;;;;;;15.23;37.63;101798.19;5078715;28;1062;-48
2023/02/12 01:01:45;;;;;;;;;;;;;;;16.79;34.76;101789.13;5077939;28;1361;-46
2023/02/12 01:04:11;;;;;;;;;;;;;;;17.56;33.14;101779.28;5076550;28;1902;-50
2023/02/12 01:06:37;;;;;;;;;;;;;;;16.35;35.43;101782.34;5078148;28;1043;-46
2023/02/12 01:09:02;;;;;;;;;;;;;;;15.75;36.50;101780.91;5078676;28;1163;-44
2023/02/12 01:11:28;;;;;;;;;;;;;;;15.42;37.01;101782.44;5077946;28;1091;-44
2023/02/12 01:13:53;;;;;;;;;;;;;;;15.74;36.81;101769.13;5077913;28;1062;-46
2023/02/12 01:16:20;;;;;;;;;;;;;;;17.20;33.68;101778.78;5077170;28;1082;-48
2023/02/12 01:18:45;;;;;;;;;;;;;;;16.47;35.18;101784.22;5077825;28;1170;-44
2023/02/12 01:21:15;;;;;;;;;;;;;;;15.73;36.61;101777.59;5078121;28;1046;-42
2023/02/12 01:23:40;;;;;;;;;;;;;;;15.42;37.26;101781.59;5077465;28;1983;-46
2023/02/12 01:26:09;;;;;;;;;;;;;;;15.66;36.67;101777.72;5076649;28;1457;-50
2023/02/12 01:28:35;;;;;;;;;;;;;;;17.17;34.02;101776.56;5076414;28;1651;-44
2023/02/12 01:31:00;;;;;;;;;;;;;;;16.94;33.99;101781.16;5077565;28;991;-47
2023/02/12 01:33:26;;;;;;;;;;;;;;;15.93;36.15;101777.19;5077447;28;1094;-45
2023/02/12 01:35:53;;;;;;;;;;;;;;;15.52;36.86;101773.59;5077586;28;1166;-44
2023/02/12 01:38:18;;;;;;;;;;;;;;;15.28;37.20;101773.66;5077368;28;1070;-46
2023/02/12 01:40:44;;;;;;;;;;;;;;;16.04;35.85;101768.06;5076044;28;1341;-48
2023/02/12 01:43:14;;;;;;;;;;;;;;;17.28;33.65;101770.09;5075876;28;1214;-49
2023/02/12 01:45:40;;;;;;;;;;;;;;;16.75;34.54;101775.88;5077268;28;1091;-45
2023/02/12 01:48:05;;;;;;;;;;;;;;;15.89;36.34;101770.53;5076189;28;1193;-44
2023/02/12 01:50:30;;;;;;;;;;;;;;;15.49;36.88;101771.34;5077284;28;1178;-45
2023/02/12 01:52:56;;;;;;;;;;;;;;;15.33;37.41;101765.53;5076877;28;861;-46
2023/02/12 01:55:21;;;;;;;;;;;;;;;16.93;34.18;101774.81;5075447;28;1067;-47
2023/02/12 01:57:47;;;;;;;;;;;;;;;16.72;34.44;101762.66;5075807;28;2300;-45
2023/02/12 02:00:13;;;;;;;;;;;;;;;15.87;36.25;101762.53;5092503;28;1093;-45
2023/02/12 02:02:42;;;;;;;;;;;;;;;15.47;37.05;101762.53;5059341;28;2083;-44
2023/02/12 02:05:07;;;;;;;;;;;;;;;15.50;36.82;101764.78;5076662;28;1898;-44
2023/02/12 02:07:33;;;;;;;;;;;;;;;17.03;34.00;101765.09;5077151;28;1149;-46
2023/02/12 02:09:59;;;;;;;;;;;;;;;17.58;32.86;101764.16;5075541;28;1397;-46
2023/02/12 02:15:11;;;;;;;;;;;;;;;15.71;36.43;101761.41;5075222;28;1111;-46
2023/02/12 02:17:42;;;;;;;;;;;;;;;15.43;37.06;101769.56;5075152;28;873;-45
2023/02/12 02:20:29;;;;;;;;;;;;;;;15.20;37.46;101754.81;5077431;28;1050;-49
2023/02/12 02:23:14;;;;;;;;;;;;;;;16.98;34.09;101754.00;5075325;28;1226;-46
2023/02/12 02:25:42;;;;;;;;;;;;;;;17.30;33.41;101762.44;5076388;28;1113;-44
2023/02/12 02:28:17;;;;;;;;;;;;;;;16.13;35.37;101754.81;5076405;28;1030;-45
2023/02/12 02:31:01;;;;;;;;;;;;;;;15.65;36.59;101758.78;5076178;28;999;-44
2023/02/12 02:33:41;;;;;;;;;;;;;;;15.32;37.35;101760.28;5064944;28;1111;-46
2023/02/12 02:36:25;;;;;;;;;;;;;;;16.14;35.79;101763.88;5075037;28;1158;-45
2023/02/12 02:39:02;;;;;;;;;;;;;;;17.41;33.51;101758.72;5076380;28;1068;-45
2023/02/12 02:41:27;;;;;;;;;;;;;;;16.69;34.45;101759.56;5075083;28;929;-48
2023/02/12 02:43:53;;;;;;;;;;;;;;;15.89;36.11;101759.56;5075915;28;1918;-45
2023/02/12 02:46:38;;;;;;;;;;;;;;;15.49;36.67;101771.34;5074893;28;1138;-46
2023/02/12 02:49:05;;;;;;;;;;;;;;;15.55;37.04;101759.41;5075304;28;1183;-44
2023/02/12 02:51:31;;;;;;;;;;;;;;;17.13;33.70;101761.66;5075048;28;1047;-48
2023/02/12 02:54:04;;;;;;;;;;;;;;;16.64;34.39;101765.00;5074461;28;1191;-46
2023/02/12 02:56:30;;;;;;;;;;;;;;;15.80;36.16;101761.03;5076054;28;1070;-50
2023/02/12 02:59:00;;;;;;;;;;;;;;;15.43;37.19;101758.59;5074910;28;1023;-46
2023/02/12 03:01:28;;;;;;;;;;;;;;;15.39;36.95;101761.81;5074920;28;1227;-46
2023/02/12 03:04:01;;;;;;;;;;;;;;;17.00;33.89;101752.69;5108420;28;1966;-48
2023/02/12 03:06:27;;;;;;;;;;;;;;;17.57;33.02;101757.00;5074683;28;946;-50
2023/02/12 03:08:57;;;;;;;;;;;;;;;16.31;35.35;101761.16;5075754;28;1027;-44
2023/02/12 03:11:26;;;;;;;;;;;;;;;15.70;36.33;101762.47;5074980;28;1055;-45
2023/02/12 03:14:12;;;;;;;;;;;;;;;15.41;37.06;101764.31;5076071;28;1193;-47
2023/02/12 03:16:43;;;;;;;;;;;;;;;15.60;36.87;101767.75;5075230;28;1126;-44
2023/02/12 03:19:18;;;;;;;;;;;;;;;17.15;33.75;101768.53;5076321;28;1093;-47
2023/02/12 03:21:48;;;;;;;;;;;;;;;17.01;33.87;101773.59;5074754;28;1083;-45
2023/02/12 03:24:23;;;;;;;;;;;;;;;16.01;36.02;101779.53;5076307;28;1902;-45
2023/02/12 03:26:50;;;;;;;;;;;;;;;15.57;36.50;101776.44;5063356;28;1197;-46
2023/02/12 03:29:15;;;;;;;;;;;;;;;15.32;37.05;101773.97;5074626;28;1121;-46
2023/02/12 03:31:59;;;;;;;;;;;;;;;16.57;34.95;101770.66;5075812;28;1157;-43
2023/02/12 03:34:31;;;;;;;;;;;;;;;17.61;32.93;101769.16;5076255;28;1030;-44
2023/02/12 03:37:32;;;;;;;;;;;;;;;16.41;34.90;101764.06;5075611;28;1202;-44
2023/02/12 03:40:00;;;;;;;;;;;;;;;15.69;36.55;101771.75;5053664;28;1480;-46
2023/02/12 03:42:28;;;;;;;;;;;;;;;15.39;36.88;101771.97;5100685;28;1166;-45
2023/02/12 03:45:07;;;;;;;;;;;;;;;15.95;35.96;101775.06;5079376;28;1957;-47
2023/02/12 03:47:33;;;;;;;;;;;;;;;17.35;33.42;101776.25;5078544;28;1027;-50
2023/02/12 03:50:05;;;;;;;;;;;;;;;16.63;34.72;101768.81;5080042;28;1238;-46
2023/02/12 03:52:31;;;;;;;;;;;;;;;15.79;36.05;101771.16;5077829;28;1127;-44
2023/02/12 03:54:56;;;;;;;;;;;;;;;15.49;36.94;101774.09;5079991;28;1162;-49
2023/02/12 03:57:23;;;;;;;;;;;;;;;15.17;37.51;101766.28;5078875;27;1166;-45
2023/02/12 03:59:48;;;;;;;;;;;;;;;16.71;34.55;101771.97;5078164;28;1163;-46
2023/02/12 04:02:15;;;;;;;;;;;;;;;17.58;33.16;101763.34;5079364;28;1046;-49
2023/02/12 04:04:40;;;;;;;;;;;;;;;16.38;35.22;101764.56;5078939;28;1982;-52
2023/02/12 04:07:06;;;;;;;;;;;;;;;15.74;36.54;101763.63;5079038;28;1109;-51
2023/02/12 04:09:31;;;;;;;;;;;;;;;15.43;37.12;101761.34;5077952;28;1075;-49
2023/02/12 04:12:00;;;;;;;;;;;;;;;15.15;37.47;101757.44;5079244;28;1094;-50
2023/02/12 04:14:25;;;;;;;;;;;;;;;16.64;34.68;101765.81;5078718;28;1110;-48
2023/02/12 04:16:53;;;;;;;;;;;;;;;17.56;33.14;101769.09;5078534;28;1058;-50
2023/02/12 04:19:41;;;;;;;;;;;;;;;16.45;34.87;101772.63;5077894;28;1040;-48
2023/02/12 04:22:10;;;;;;;;;;;;;;;15.71;36.64;101769.63;5068356;28;1058;-51
2023/02/12 04:24:49;;;;;;;;;;;;;;;15.37;37.15;101760.41;5077922;28;1981;-45
2023/02/12 04:27:25;;;;;;;;;;;;;;;16.89;34.09;101757.19;5079178;28;1074;-48
2023/02/12 04:29:53;;;;;;;;;;;;;;;17.06;33.72;101765.38;5076847;28;1171;-47
2023/02/12 04:32:31;;;;;;;;;;;;;;;16.03;35.79;101777.41;5077498;28;1050;-45
2023/02/12 04:34:58;;;;;;;;;;;;;;;15.56;36.73;101770.13;5077702;28;1062;-42
2023/02/12 04:37:43;;;;;;;;;;;;;;;15.29;37.17;101782.69;5077322;28;1063;-51
2023/02/12 04:40:11;;;;;;;;;;;;;;;16.08;35.75;101788.44;5078059;28;1775;-47
2023/02/12 04:42:43;;;;;;;;;;;;;;;17.31;33.60;101794.34;5078000;28;1187;-46
2023/02/12 04:45:09;;;;;;;;;;;;;;;16.28;35.06;101798.16;5077219;28;1965;-48
2023/02/12 04:47:35;;;;;;;;;;;;;;;15.65;36.33;101794.44;5078624;28;1182;-46
2023/02/12 04:50:00;;;;;;;;;;;;;;;15.30;36.92;101801.63;5078351;28;1066;-42
2023/02/12 04:52:26;;;;;;;;;;;;;;;16.09;35.55;101792.06;5078362;28;1060;-49
2023/02/12 04:54:51;;;;;;;;;;;;;;;17.31;33.26;101802.59;5078041;28;990;-47
2023/02/12 04:57:16;;;;;;;;;;;;;;;16.81;34.03;101807.00;5078532;28;1146;-48
2023/02/12 04:59:42;;;;;;;;;;;;;;;16.04;35.16;101809.22;5078192;28;1150;-49
2023/02/12 05:02:07;;;;;;;;;;;;;;;15.74;35.66;101796.53;5078295;28;1260;-45
2023/02/12 05:04:33;;;;;;;;;;;;;;;15.43;36.21;101818.91;5078059;28;1910;-47
2023/02/12 05:06:58;;;;;;;;;;;;;;;15.99;35.32;101819.28;5077716;28;1229;-50
2023/02/12 05:09:24;;;;;;;;;;;;;;;17.28;32.92;101817.66;5077956;28;1062;-53
2023/02/12 05:11:49;;;;;;;;;;;;;;;16.70;34.06;101814.25;5078489;28;1019;-52
2023/02/12 05:14:14;;;;;;;;;;;;;;;15.88;35.77;101818.25;5077938;28;1054;-48
2023/02/12 05:16:40;;;;;;;;;;;;;;;15.52;36.18;101832.00;5077935;28;1054;-48
2023/02/12 05:19:08;;;;;;;;;;;;;;;15.21;36.96;101830.47;5077794;28;1012;-52
2023/02/12 05:21:33;;;;;;;;;;;;;;;15.29;36.99;101832.88;5077432;28;1129;-49
2023/02/12 05:24:00;;;;;;;;;;;;;;;16.88;33.86;101826.09;5077789;28;1898;-51
2023/02/12 05:26:25;;;;;;;;;;;;;;;17.40;32.89;101831.31;5077771;28;1137;-51
2023/02/12 05:28:50;;;;;;;;;;;;;;;16.16;34.98;101835.78;5077159;28;1093;-52
2023/02/12 05:31:16;;;;;;;;;;;;;;;15.70;35.97;101827.44;5076788;28;919;-51
2023/02/12 05:33:42;;;;;;;;;;;;;;;15.37;36.34;101835.22;5077117;28;1173;-50
2023/02/12 05:36:09;;;;;;;;;;;;;;;15.80;35.81;101837.81;5077470;28;1105;-51
2023/02/12 05:38:35;;;;;;;;;;;;;;;17.19;33.26;101830.16;5077432;28;1190;-49
2023/02/12 05:41:03;;;;;;;;;;;;;;;16.73;34.08;101835.75;5075930;28;1149;-54
2023/02/12 05:43:29;;;;;;;;;;;;;;;15.87;35.43;101844.00;5076513;28;1906;-57
2023/02/12 05:45:57;;;;;;;;;;;;;;;15.48;36.58;101846.44;5077301;28;1170;-55
2023/02/12 05:48:22;;;;;;;;;;;;;;;15.73;36.25;101855.19;5076113;28;1183;-54
2023/02/12 05:50:47;;;;;;;;;;;;;;;17.19;33.31;101862.31;5077060;28;1182;-54
2023/02/12 05:53:13;;;;;;;;;;;;;;;17.12;33.25;101856.16;5077413;28;1136;-55
2023/02/12 05:55:38;;;;;;;;;;;;;;;16.05;35.17;101864.94;5076726;28;909;-52
2023/02/12 05:58:04;;;;;;;;;;;;;;;15.65;36.31;101868.47;5077277;28;1110;-53
2023/02/12 06:00:29;;;;;;;;;;;;;;;15.34;36.62;101881.47;5076311;28;880;-58
2023/02/12 06:02:55;;;;;;;;;;;;;;;15.95;35.75;101890.25;5076838;28;1070;-53
2023/02/12 06:05:20;;;;;;;;;;;;;;;17.29;33.37;101887.19;5076171;28;1917;-58
2023/02/12 06:07:45;;;;;;;;;;;;;;;16.71;34.34;101884.59;5076849;28;861;-58
2023/02/12 06:10:11;;;;;;;;;;;;;;;15.88;35.99;101884.09;5076885;28;1085;-53
2023/02/12 06:12:36;;;;;;;;;;;;;;;15.49;36.65;101891.97;5076008;28;1170;-48
2023/02/12 06:15:02;;;;;;;;;;;;;;;15.23;36.97;101896.81;5076767;28;1122;-50
2023/02/12 06:17:27;;;;;;;;;;;;;;;16.81;34.17;101894.91;5076658;28;1150;-56
2023/02/12 06:19:52;;;;;;;;;;;;;;;15.79;35.80;101891.81;5075994;28;854;-48
2023/02/12 06:22:18;;;;;;;;;;;;;;;17.08;33.67;101884.16;5076515;28;1054;-57
2023/02/12 06:24:43;;;;;;;;;;;;;;;17.08;33.58;101878.66;5076430;28;1909;-46
2023/02/12 06:27:09;;;;;;;;;;;;;;;15.90;35.82;101876.44;5076614;28;1143;-57
2023/02/12 06:29:34;;;;;;;;;;;;;;;15.83;35.95;101890.28;5076814;28;1163;-57
2023/02/12 06:31:59;;;;;;;;;;;;;;;16.32;34.97;101900.88;5076136;28;880;-47
2023/02/12 06:34:25;;;;;;;;;;;;;;;15.57;36.49;101905.28;5075724;28;1042;-49
2023/02/12 06:36:50;;;;;;;;;;;;;;;16.29;35.35;101901.38;5076634;28;1078;-51
2023/02/12 06:39:16;;;;;;;;;;;;;;;16.16;35.18;101907.97;5076188;28;1082;-52
2023/02/12 06:41:42;;;;;;;;;;;;;;;15.51;36.79;101918.03;5076140;28;1214;-53
2023/02/12 06:44:09;;;;;;;;;;;;;;;17.21;33.44;101915.97;5075436;28;1906;-57
2023/02/12 06:46:34;;;;;;;;;;;;;;;15.74;36.35;101911.72;5076450;28;1118;-52
2023/02/12 06:49:00;;;;;;;;;;;;;;;16.98;33.96;101925.19;5076107;28;1094;-59
2023/02/12 06:51:25;;;;;;;;;;;;;;;16.71;34.33;101914.78;5077151;28;1146;-57
2023/02/12 06:53:51;;;;;;;;;;;;;;;15.80;36.10;101909.97;5075856;28;1142;-56
2023/02/12 06:56:16;;;;;;;;;;;;;;;17.46;33.30;101911.97;5076121;28;1206;-57
2023/02/12 06:58:43;;;;;;;;;;;;;;;16.11;35.49;101909.78;5076387;28;1125;-45
2023/02/12 07:01:11;;;;;;;;;;;;;;;15.57;36.76;101914.34;5076451;28;1209;-54
2023/02/12 07:03:38;;;;;;;;;;;;;;;16.75;34.45;101918.72;5075851;28;1918;-57
2023/02/12 07:06:03;;;;;;;;;;;;;;;15.73;36.16;101914.72;5076138;28;1038;-54
2023/02/12 07:08:29;;;;;;;;;;;;;;;16.96;34.32;101905.38;5076169;28;1066;-58
2023/02/12 07:10:54;;;;;;;;;;;;;;;16.29;35.38;101906.84;5076324;28;1113;-58
2023/02/12 07:13:19;;;;;;;;;;;;;;;16.56;35.07;101906.28;5076048;28;1129;-54
2023/02/12 07:15:45;;;;;;;;;;;;;;;17.72;32.54;101910.38;5076021;28;1146;-56
2023/02/12 07:18:10;;;;;;;;;;;;;;;16.19;35.64;101910.22;5080163;28;1176;-56
2023/02/12 07:20:36;;;;;;;;;;;;;;;15.72;36.58;101905.66;5080138;28;1095;-52
2023/02/12 07:23:01;;;;;;;;;;;;;;;17.48;33.01;101917.19;5080253;28;1090;-52
2023/02/12 07:25:27;;;;;;;;;;;;;;;16.10;35.67;101913.59;5079547;28;1965;-49
2023/02/12 07:27:52;;;;;;;;;;;;;;;16.45;35.16;101931.88;5079868;28;1213;-57
2023/02/12 07:30:18;;;;;;;;;;;;;;;16.65;34.48;101921.28;5080095;28;1138;-57
2023/02/12 07:32:43;;;;;;;;;;;;;;;15.85;36.24;101936.66;5079898;28;1122;-58
2023/02/12 07:35:09;;;;;;;;;;;;;;;16.83;34.57;101930.38;5079581;28;1178;-59
2023/02/12 07:37:34;;;;;;;;;;;;;;;15.90;35.90;101940.34;5079933;28;1371;-53
2023/02/12 07:40:00;;;;;;;;;;;;;;;16.98;34.38;101936.19;5079919;28;1062;-57
2023/02/12 07:42:26;;;;;;;;;;;;;;;17.12;33.79;101936.69;5079010;28;1171;-57
2023/02/12 07:44:51;;;;;;;;;;;;;;;15.98;36.07;101950.13;5079051;28;1957;-56
2023/02/12 07:47:16;;;;;;;;;;;;;;;16.10;35.80;101941.03;5079776;28;1158;-56
2023/02/12 07:49:42;;;;;;;;;;;;;;;16.17;35.60;101939.00;5079241;28;1102;-49
2023/02/12 07:52:07;;;;;;;;;;;;;;;15.80;36.31;101942.03;5079640;28;1178;-51
2023/02/12 07:54:33;;;;;;;;;;;;;;;17.60;33.17;101937.19;5078998;28;1058;-53
2023/02/12 07:56:59;;;;;;;;;;;;;;;16.26;35.41;101945.78;5079033;28;1233;-51
2023/02/12 07:59:25;;;;;;;;;;;;;;;16.20;35.79;101944.84;5079600;28;1026;-51
2023/02/12 08:01:51;;;;;;;;;;;;;;;16.56;34.61;101944.72;5079518;28;1166;-54
2023/02/12 08:04:18;;;;;;;;;;;;;;;15.87;36.25;101943.56;5078981;28;1906;-60
2023/02/12 08:06:44;;;;;;;;;;;;;;;17.44;33.62;101949.84;5078779;28;1121;-50
2023/02/12 08:09:10;;;;;;;;;;;;;;;16.21;35.50;101951.16;5079417;28;1119;-53
2023/02/12 08:11:36;;;;;;;;;;;;;;;16.31;35.41;101962.34;5079233;28;1161;-55
2023/02/12 08:14:02;;;;;;;;;;;;;;;16.76;34.55;101964.34;5079348;28;1146;-52
2023/02/12 08:16:27;;;;;;;;;;;;;;;15.92;36.11;101967.53;5079027;28;1209;-53
2023/02/12 08:18:53;;;;;;;;;;;;;;;17.34;33.56;101971.69;5079120;28;1129;-53
2023/02/12 08:21:19;;;;;;;;;;;;;;;16.23;35.60;101968.22;5079183;28;1153;-52
2023/02/12 08:23:45;;;;;;;;;;;;;;;17.23;33.97;101977.00;5079138;28;1898;-52
2023/02/12 08:26:16;;;;;;;;;;;;;;;17.50;33.33;101981.88;5078164;28;1054;-53
2023/02/12 08:28:44;;;;;;;;;;;;;;;16.24;35.59;101970.72;5077887;28;908;-52
2023/02/12 08:31:11;;;;;;;;;;;;;;;15.90;36.21;101969.69;5078451;28;1405;-55
2023/02/12 08:33:36;;;;;;;;;;;;;;;17.20;33.93;101971.19;5078682;28;1081;-54
2023/02/12 08:36:06;;;;;;;;;;;;;;;16.15;35.90;101977.66;5078909;28;1174;-53
2023/02/12 08:38:32;;;;;;;;;;;;;;;15.72;36.82;101974.22;5078717;28;1277;-53
2023/02/12 08:41:01;;;;;;;;;;;;;;;16.56;34.86;101972.16;5078088;28;1196;-54
2023/02/12 08:43:26;;;;;;;;;;;;;;;15.76;36.59;101974.56;5078323;28;1238;-57
2023/02/12 08:45:52;;;;;;;;;;;;;;;17.52;33.48;101973.38;5078489;28;1910;-53
2023/02/12 08:48:19;;;;;;;;;;;;;;;16.32;35.31;101969.50;5078608;28;1093;-56
2023/02/12 08:50:45;;;;;;;;;;;;;;;15.78;36.30;101979.81;5078372;28;1141;-52
2023/02/12 08:53:10;;;;;;;;;;;;;;;17.17;34.07;101980.75;5078570;28;1062;-54
2023/02/12 08:55:36;;;;;;;;;;;;;;;16.00;36.20;101986.38;5077765;28;1310;-52
2023/02/12 08:58:02;;;;;;;;;;;;;;;17.29;33.68;101980.69;5077995;28;1115;-55
2023/02/12 09:00:28;;;;;;;;;;;;;;;17.06;33.95;101976.16;5078656;28;1066;-51
2023/02/12 09:02:53;;;;;;;;;;;;;;;16.11;36.09;101986.63;5078226;28;1003;-55
2023/02/12 09:05:18;;;;;;;;;;;;;;;16.52;35.18;101988.31;5078483;28;1890;-54
2023/02/12 09:07:44;;;;;;;;;;;;;;;16.65;34.59;101981.69;5077487;28;1063;-51
2023/02/12 09:10:09;;;;;;;;;;;;;;;15.81;36.66;101991.16;5077720;28;1111;-53
2023/02/12 09:12:35;;;;;;;;;;;;;;;16.16;36.13;101992.19;5078219;28;1086;-52
2023/02/12 09:15:00;;;;;;;;;;;;;;;16.20;35.74;102002.47;5078459;28;1114;-54
2023/02/12 09:17:26;;;;;;;;;;;;;;;15.73;36.68;101994.22;5078143;28;1062;-58
2023/02/12 09:19:52;;;;;;;;;;;;;;;17.41;33.31;102005.34;5077933;28;1078;-56
2023/02/12 09:22:17;;;;;;;;;;;;;;;16.04;36.07;102000.47;5078160;28;1034;-54
2023/02/12 09:24:43;;;;;;;;;;;;;;;16.69;35.12;101998.50;5077488;28;1906;-54
2023/02/12 09:27:08;;;;;;;;;;;;;;;16.66;34.65;102005.34;5078035;28;1166;-53
2023/02/12 09:29:34;;;;;;;;;;;;;;;15.92;36.52;101997.69;5077695;28;1125;-57
2023/02/12 09:32:01;;;;;;;;;;;;;;;17.20;34.00;102012.41;5077335;28;1129;-52
2023/02/12 09:34:26;;;;;;;;;;;;;;;16.01;35.85;102014.66;5077353;28;1182;-51
2023/02/12 09:36:52;;;;;;;;;;;;;;;17.06;34.59;102017.38;5077228;28;1051;-51
2023/02/12 09:39:17;;;;;;;;;;;;;;;17.20;33.65;102016.00;5076722;28;1091;-52
2023/02/12 09:41:45;;;;;;;;;;;;;;;16.19;35.86;102005.47;5077237;28;1078;-55
2023/02/12 09:44:21;;;;;;;;;;;;;;;16.60;35.28;102011.78;5076563;28;1984;-52
2023/02/12 09:46:52;;;;;;;;;;;;;;;16.31;35.69;102014.47;5076079;28;1185;-53
2023/02/12 09:49:36;;;;;;;;;;;;;;;17.15;34.20;102006.81;5078032;28;1070;-48
2023/02/12 09:52:01;;;;;;;;;;;;;;;17.35;33.87;102003.59;5072711;28;1072;-48
2023/02/12 09:54:35;;;;;;;;;;;;;;;16.49;35.43;102018.16;5075989;28;1119;-54
2023/02/12 09:57:01;;;;;;;;;;;;;;;18.40;32.08;102014.81;5075215;28;1004;-60
2023/02/12 09:59:29;;;;;;;;;;;;;;;16.97;34.49;102011.47;5074677;28;1178;-57
2023/02/12 10:01:54;;;;;;;;;;;;;;;16.47;35.55;102023.06;5075868;28;1174;-64
2023/02/12 10:04:20;;;;;;;;;;;;;;;16.03;36.46;102017.97;5073361;28;1910;-67
2023/02/12 10:06:48;;;;;;;;;;;;;;;16.16;36.22;102019.63;5074937;28;1110;-66
2023/02/12 10:09:18;;;;;;;;;;;;;;;16.86;34.76;102004.91;5075850;28;892;-66
2023/02/12 10:11:46;;;;;;;;;;;;;;;16.04;36.20;102014.19;5076537;28;1143;-65
2023/02/12 10:14:31;;;;;;;;;;;;;;;16.79;34.86;102019.84;5076166;28;1105;-59
2023/02/12 10:16:57;;;;;;;;;;;;;;;16.36;35.68;102022.00;5076647;28;1018;-56
2023/02/12 10:19:22;;;;;;;;;;;;;;;15.80;36.60;102021.59;5076542;28;1024;-60
2023/02/12 10:22:06;;;;;;;;;;;;;;;17.21;34.24;102023.16;5075413;28;873;-62
2023/02/12 10:25:04;;;;;;;;;;;;;;;16.12;36.24;102019.31;5075620;28;1910;-54
2023/02/12 10:27:49;;;;;;;;;;;;;;;16.91;34.84;102023.41;5054406;28;1171;-62
2023/02/12 10:30:34;;;;;;;;;;;;;;;16.52;35.43;102025.91;5075734;28;1062;-59
2023/02/12 10:33:01;;;;;;;;;;;;;;;15.87;36.81;102027.78;5075174;28;1133;-58
2023/02/12 10:35:27;;;;;;;;;;;;;;;16.40;35.75;102021.28;5074582;28;1114;-57
2023/02/12 10:38:13;;;;;;;;;;;;;;;16.37;35.55;102034.66;5074857;28;1186;-60
2023/02/12 10:40:38;;;;;;;;;;;;;;;17.21;34.36;102019.59;5074508;28;1048;-58
2023/02/12 10:43:04;;;;;;;;;;;;;;;17.85;32.90;102021.16;5074574;28;1276;-55
2023/02/12 10:45:29;;;;;;;;;;;;;;;16.51;35.37;102022.34;5075651;28;1909;-55
2023/02/12 10:48:15;;;;;;;;;;;;;;;15.94;36.70;102025.75;5076196;28;1197;-54
2023/02/12 10:50:40;;;;;;;;;;;;;;;16.57;35.44;102023.28;5074725;28;1245;-55
2023/02/12 10:53:07;;;;;;;;;;;;;;;16.35;35.68;102034.88;5074865;28;1193;-60
2023/02/12 10:55:33;;;;;;;;;;;;;;;16.75;35.08;102036.81;5075290;28;1211;-54
2023/02/12 10:58:00;;;;;;;;;;;;;;;17.84;32.95;102039.59;5075615;28;919;-54
2023/02/12 11:00:25;;;;;;;;;;;;;;;16.37;35.59;102035.50;5074358;28;1059;-58
2023/02/12 11:03:09;;;;;;;;;;;;;;;16.02;36.61;102046.47;5075577;28;1027;-53
2023/02/12 11:05:35;;;;;;;;;;;;;;;15.80;36.75;102046.25;5075606;28;1973;-49
2023/02/12 11:08:00;;;;;;;;;;;;;;;16.30;36.19;102048.53;5075242;28;1070;-58
2023/02/12 11:10:26;;;;;;;;;;;;;;;16.57;35.45;102051.56;5075726;28;1169;-57
2023/02/12 11:12:51;;;;;;;;;;;;;;;15.90;36.72;102050.06;5075032;28;1115;-60
2023/02/12 11:15:23;;;;;;;;;;;;;;;17.88;33.14;102050.94;5074356;28;1075;-57
2023/02/12 11:17:56;;;;;;;;;;;;;;;16.46;35.35;102043.34;5074879;28;1055;-61
2023/02/12 11:20:26;;;;;;;;;;;;;;;16.18;36.22;102047.69;5062872;28;1027;-62
2023/02/12 11:22:53;;;;;;;;;;;;;;;16.71;35.07;102046.63;5075239;28;1074;-58
2023/02/12 11:25:19;;;;;;;;;;;;;;;15.87;36.90;102046.97;5075795;28;1909;-64
2023/02/12 11:27:44;;;;;;;;;;;;;;;16.70;35.55;102044.94;5075519;28;1087;-60
2023/02/12 11:30:19;;;;;;;;;;;;;;;16.04;36.50;102047.09;5075698;28;1193;-62
2023/02/12 11:32:45;;;;;;;;;;;;;;;18.02;33.03;102038.53;5074540;28;1090;-61
2023/02/12 11:35:23;;;;;;;;;;;;;;;17.53;33.53;102035.50;5075512;28;1086;-61
2023/02/12 11:37:49;;;;;;;;;;;;;;;16.48;35.78;102046.69;5075087;28;1051;-63
2023/02/12 11:40:19;;;;;;;;;;;;;;;16.06;36.50;102039.44;5074172;28;1032;-60
2023/02/12 11:42:46;;;;;;;;;;;;;;;15.95;36.95;102032.91;5074708;28;1044;-61
2023/02/12 11:45:18;;;;;;;;;;;;;;;16.63;35.26;102036.03;5073800;28;1976;-61
2023/02/12 11:47:45;;;;;;;;;;;;;;;16.80;35.35;102043.50;5075839;28;1086;-63
2023/02/12 11:50:26;;;;;;;;;;;;;;;18.35;32.35;102039.53;5075160;28;1166;-58
2023/02/12 11:52:52;;;;;;;;;;;;;;;16.65;35.55;102031.13;5061548;28;1015;-56
2023/02/12 11:55:20;;;;;;;;;;;;;;;16.15;36.13;102029.78;5074142;28;1039;-59
2023/02/12 11:57:46;;;;;;;;;;;;;;;16.83;34.91;102030.13;5074774;28;1353;-59
2023/02/12 12:00:11;;;;;;;;;;;;;;;15.95;36.71;102043.88;5075104;28;1077;-63
2023/02/12 12:02:38;;;;;;;;;;;;;;;17.35;34.18;102042.94;5075189;28;1193;-62
2023/02/12 12:05:07;;;;;;;;;;;;;;;16.45;35.86;102058.97;5077983;28;1918;-59
2023/02/12 12:07:33;;;;;;;;;;;;;;;17.51;34.13;102045.94;5077926;28;1103;-64
2023/02/12 12:10:06;;;;;;;;;;;;;;;17.57;33.57;102055.94;5077299;28;1175;-61
2023/02/12 12:12:36;;;;;;;;;;;;;;;16.44;35.75;102068.31;5077347;28;1134;-62
2023/02/12 12:20:56;;;;;;;;;;;;;;;15.99;36.57;102068.91;5066742;28;1144;-61
2023/02/12 12:23:29;;;;;;;;;;;;;;;16.35;36.13;102059.59;5052807;28;1271;-64
2023/02/12 12:25:55;;;;;;;;;;;;;;;16.36;36.03;102061.25;5077131;28;1997;-61
2023/02/12 12:28:39;;;;;;;;;;;;;;;17.71;33.53;102068.31;5077186;28;1127;-61
2023/02/12 12:31:25;;;;;;;;;;;;;;;18.13;32.43;102059.63;5078455;28;1110;-62
2023/02/12 12:33:51;;;;;;;;;;;;;;;16.64;35.49;102073.41;5077556;28;1023;-62
2023/02/12 12:36:16;;;;;;;;;;;;;;;16.15;36.42;102064.63;5076973;28;1257;-62
2023/02/12 12:38:44;;;;;;;;;;;;;;;16.07;36.58;102069.41;5078258;28;1058;-61
2023/02/12 12:41:28;;;;;;;;;;;;;;;17.39;33.84;102071.59;5076695;28;1036;-61
2023/02/12 12:44:12;;;;;;;;;;;;;;;16.12;36.23;102081.56;5077450;28;1975;-64
2023/02/12 12:46:50;;;;;;;;;;;;;;;15.85;36.92;102076.53;5077782;28;864;-63
2023/02/12 12:49:21;;;;;;;;;;;;;;;17.09;34.53;102078.19;5077970;28;1126;-62
2023/02/12 12:51:59;;;;;;;;;;;;;;;15.95;36.63;102086.91;5077747;28;1141;-62
2023/02/12 12:54:46;;;;;;;;;;;;;;;18.05;33.14;102086.75;5064936;28;1088;-62
2023/02/12 12:57:30;;;;;;;;;;;;;;;16.74;35.36;102101.06;5075896;28;1044;-63
2023/02/12 13:00:15;;;;;;;;;;;;;;;16.29;36.39;102093.50;5077584;28;1027;-62
2023/02/12 13:02:46;;;;;;;;;;;;;;;16.80;35.08;102095.69;5066547;28;1070;-59